Terminal Aerodrome Forecast
Issued by NWS Jacksonville, FL

Home | Current Version | Previous Version | Text Only | Print | Product List | Glossary On
Versions: 1 2 3 4 5 6 7 8 9 10 11 12 13 14 15 16 17 18 19 20
811
FTUS42 KJAX 232320
TAFSSI
TAF
KSSI 232320Z 2400/2424 03012KT P6SM SCT020 SCT040
     FM240400 02008KT P6SM SCT010 SCT020
     FM240800 01006KT 6SM BR SCT005
     FM241400 03008KT P6SM SCT015 SCT025
     FM241800 05012KT P6SM SCT030=

USA.gov is the U.S. government's official web portal to all federal, state and local government web resources and services.